sensor_id;sensor_type;location;lat;lon;timestamp;P1;durP1;ratioP1;P2;durP2;ratioP2
58446;SDS011;44240;51.840;7.258;2022-08-07T00:02:01;7.00;;;2.80;;
58446;SDS011;44240;51.840;7.258;2022-08-07T00:04:27;4.10;;;3.33;;
58446;SDS011;44240;51.840;7.258;2022-08-07T00:06:52;5.50;;;3.33;;
58446;SDS011;44240;51.840;7.258;2022-08-07T00:09:19;4.50;;;3.40;;
58446;SDS011;44240;51.840;7.258;2022-08-07T00:11:45;4.38;;;3.75;;
58446;SDS011;44240;51.840;7.258;2022-08-07T00:14:10;5.45;;;3.92;;
58446;SDS011;44240;51.840;7.258;2022-08-07T00:16:36;7.50;;;3.85;;
58446;SDS011;44240;51.840;7.258;2022-08-07T00:19:01;6.70;;;4.30;;
58446;SDS011;44240;51.840;7.258;2022-08-07T00:21:27;6.22;;;4.07;;
58446;SDS011;44240;51.840;7.258;2022-08-07T00:23:52;6.18;;;4.05;;
58446;SDS011;44240;51.840;7.258;2022-08-07T00:26:18;6.32;;;3.65;;
58446;SDS011;44240;51.840;7.258;2022-08-07T00:28:44;4.68;;;3.30;;
58446;SDS011;44240;51.840;7.258;2022-08-07T00:31:10;4.53;;;2.92;;
58446;SDS011;44240;51.840;7.258;2022-08-07T00:33:36;5.75;;;3.72;;
58446;SDS011;44240;51.840;7.258;2022-08-07T00:36:03;3.83;;;2.80;;
58446;SDS011;44240;51.840;7.258;2022-08-07T00:38:30;4.70;;;3.45;;
58446;SDS011;44240;51.840;7.258;2022-08-07T00:40:58;4.97;;;3.10;;
58446;SDS011;44240;51.840;7.258;2022-08-07T00:43:24;4.32;;;2.75;;
58446;SDS011;44240;51.840;7.258;2022-08-07T00:45:50;5.50;;;3.28;;
58446;SDS011;44240;51.840;7.258;2022-08-07T00:48:15;4.10;;;2.55;;
58446;SDS011;44240;51.840;7.258;2022-08-07T00:50:41;5.45;;;3.13;;
58446;SDS011;44240;51.840;7.258;2022-08-07T00:53:07;6.22;;;3.28;;
58446;SDS011;44240;51.840;7.258;2022-08-07T00:55:32;5.50;;;3.05;;
58446;SDS011;44240;51.840;7.258;2022-08-07T00:57:58;3.70;;;2.70;;
58446;SDS011;44240;51.840;7.258;2022-08-07T01:00:23;4.82;;;3.00;;
58446;SDS011;44240;51.840;7.258;2022-08-07T01:02:49;4.50;;;3.00;;
58446;SDS011;44240;51.840;7.258;2022-08-07T01:05:15;5.68;;;2.70;;
58446;SDS011;44240;51.840;7.258;2022-08-07T01:07:41;5.07;;;3.30;;
58446;SDS011;44240;51.840;7.258;2022-08-07T01:10:07;6.38;;;3.22;;
58446;SDS011;44240;51.840;7.258;2022-08-07T01:12:34;5.55;;;3.30;;
58446;SDS011;44240;51.840;7.258;2022-08-07T01:15:02;5.20;;;3.08;;
58446;SDS011;44240;51.840;7.258;2022-08-07T01:17:28;4.28;;;3.03;;
58446;SDS011;44240;51.840;7.258;2022-08-07T01:20:00;2.92;;;2.63;;
58446;SDS011;44240;51.840;7.258;2022-08-07T01:22:31;4.20;;;3.42;;
58446;SDS011;44240;51.840;7.258;2022-08-07T01:24:57;4.35;;;2.67;;
58446;SDS011;44240;51.840;7.258;2022-08-07T01:27:23;4.43;;;2.88;;
58446;SDS011;44240;51.840;7.258;2022-08-07T01:29:49;5.85;;;3.60;;
58446;SDS011;44240;51.840;7.258;2022-08-07T01:32:15;7.05;;;3.47;;
58446;SDS011;44240;51.840;7.258;2022-08-07T01:34:41;6.30;;;3.55;;
58446;SDS011;44240;51.840;7.258;2022-08-07T01:37:09;5.18;;;3.40;;
58446;SDS011;44240;51.840;7.258;2022-08-07T01:39:37;3.45;;;2.90;;
58446;SDS011;44240;51.840;7.258;2022-08-07T01:42:03;6.32;;;3.30;;
58446;SDS011;44240;51.840;7.258;2022-08-07T01:44:28;4.65;;;3.35;;
58446;SDS011;44240;51.840;7.258;2022-08-07T01:46:54;4.88;;;2.88;;
58446;SDS011;44240;51.840;7.258;2022-08-07T01:49:21;4.28;;;3.75;;
58446;SDS011;44240;51.840;7.258;2022-08-07T01:51:46;6.28;;;3.50;;
58446;SDS011;44240;51.840;7.258;2022-08-07T01:54:13;3.60;;;3.30;;
58446;SDS011;44240;51.840;7.258;2022-08-07T01:56:53;3.30;;;3.00;;
58446;SDS011;44240;51.840;7.258;2022-08-07T01:59:31;3.38;;;2.90;;
58446;SDS011;44240;51.840;7.258;2022-08-07T02:02:07;3.10;;;2.75;;
58446;SDS011;44240;51.840;7.258;2022-08-07T02:04:43;5.60;;;3.40;;
58446;SDS011;44240;51.840;7.258;2022-08-07T02:07:15;4.53;;;3.20;;
58446;SDS011;44240;51.840;7.258;2022-08-07T02:09:44;3.40;;;3.10;;
58446;SDS011;44240;51.840;7.258;2022-08-07T02:12:11;5.30;;;3.05;;
58446;SDS011;44240;51.840;7.258;2022-08-07T02:14:48;3.58;;;3.28;;
58446;SDS011;44240;51.840;7.258;2022-08-07T02:19:43;4.65;;;3.15;;
58446;SDS011;44240;51.840;7.258;2022-08-07T02:22:11;3.78;;;2.90;;
58446;SDS011;44240;51.840;7.258;2022-08-07T02:24:39;4.32;;;3.15;;
58446;SDS011;44240;51.840;7.258;2022-08-07T02:27:07;4.20;;;3.40;;
58446;SDS011;44240;51.840;7.258;2022-08-07T02:29:33;3.40;;;3.03;;
58446;SDS011;44240;51.840;7.258;2022-08-07T02:32:00;3.70;;;3.35;;
58446;SDS011;44240;51.840;7.258;2022-08-07T02:34:29;3.40;;;3.08;;
58446;SDS011;44240;51.840;7.258;2022-08-07T02:36:57;7.05;;;3.97;;
58446;SDS011;44240;51.840;7.258;2022-08-07T02:39:24;5.85;;;3.92;;
58446;SDS011;44240;51.840;7.258;2022-08-07T02:41:50;5.50;;;3.92;;
58446;SDS011;44240;51.840;7.258;2022-08-07T02:44:17;3.92;;;3.58;;
58446;SDS011;44240;51.840;7.258;2022-08-07T02:46:44;3.85;;;3.10;;
58446;SDS011;44240;51.840;7.258;2022-08-07T02:49:12;4.22;;;3.20;;
58446;SDS011;44240;51.840;7.258;2022-08-07T02:51:38;5.03;;;3.38;;
58446;SDS011;44240;51.840;7.258;2022-08-07T02:54:04;5.30;;;3.30;;
58446;SDS011;44240;51.840;7.258;2022-08-07T02:56:35;6.88;;;3.22;;
58446;SDS011;44240;51.840;7.258;2022-08-07T02:59:03;5.57;;;4.00;;
58446;SDS011;44240;51.840;7.258;2022-08-07T03:01:32;6.20;;;3.92;;
58446;SDS011;44240;51.840;7.258;2022-08-07T03:04:00;4.03;;;3.63;;
58446;SDS011;44240;51.840;7.258;2022-08-07T03:06:27;5.53;;;3.60;;
58446;SDS011;44240;51.840;7.258;2022-08-07T03:08:54;4.25;;;3.50;;
58446;SDS011;44240;51.840;7.258;2022-08-07T03:11:20;4.28;;;3.60;;
58446;SDS011;44240;51.840;7.258;2022-08-07T03:13:46;6.40;;;4.75;;
58446;SDS011;44240;51.840;7.258;2022-08-07T03:16:12;4.57;;;3.40;;
58446;SDS011;44240;51.840;7.258;2022-08-07T03:18:38;7.57;;;4.00;;
58446;SDS011;44240;51.840;7.258;2022-08-07T03:21:04;5.28;;;4.07;;
58446;SDS011;44240;51.840;7.258;2022-08-07T03:23:30;5.07;;;3.80;;
58446;SDS011;44240;51.840;7.258;2022-08-07T03:25:58;6.05;;;3.70;;
58446;SDS011;44240;51.840;7.258;2022-08-07T03:28:26;8.13;;;4.55;;
58446;SDS011;44240;51.840;7.258;2022-08-07T03:30:53;4.07;;;3.67;;
58446;SDS011;44240;51.840;7.258;2022-08-07T03:33:40;5.03;;;3.60;;
58446;SDS011;44240;51.840;7.258;2022-08-07T03:36:08;6.68;;;3.40;;
58446;SDS011;44240;51.840;7.258;2022-08-07T03:38:36;6.22;;;4.55;;
58446;SDS011;44240;51.840;7.258;2022-08-07T03:41:02;6.55;;;4.43;;
58446;SDS011;44240;51.840;7.258;2022-08-07T03:43:29;4.80;;;4.15;;
58446;SDS011;44240;51.840;7.258;2022-08-07T03:45:54;6.35;;;4.18;;
58446;SDS011;44240;51.840;7.258;2022-08-07T03:48:20;4.65;;;4.07;;
58446;SDS011;44240;51.840;7.258;2022-08-07T03:50:46;6.00;;;3.90;;
58446;SDS011;44240;51.840;7.258;2022-08-07T03:53:13;4.90;;;4.40;;
58446;SDS011;44240;51.840;7.258;2022-08-07T03:55:40;5.55;;;4.00;;
58446;SDS011;44240;51.840;7.258;2022-08-07T03:58:07;6.07;;;4.15;;
58446;SDS011;44240;51.840;7.258;2022-08-07T04:00:33;7.45;;;4.05;;
58446;SDS011;44240;51.840;7.258;2022-08-07T04:03:00;5.53;;;3.92;;
58446;SDS011;44240;51.840;7.258;2022-08-07T04:05:26;4.97;;;4.15;;
58446;SDS011;44240;51.840;7.258;2022-08-07T04:07:51;6.97;;;4.28;;
58446;SDS011;44240;51.840;7.258;2022-08-07T04:10:18;6.40;;;4.40;;
58446;SDS011;44240;51.840;7.258;2022-08-07T04:12:44;6.13;;;4.15;;
58446;SDS011;44240;51.840;7.258;2022-08-07T04:15:10;7.78;;;4.68;;
58446;SDS011;44240;51.840;7.258;2022-08-07T04:17:36;5.18;;;4.57;;
58446;SDS011;44240;51.840;7.258;2022-08-07T04:20:03;7.00;;;5.30;;
58446;SDS011;44240;51.840;7.258;2022-08-07T04:22:32;6.20;;;4.63;;
58446;SDS011;44240;51.840;7.258;2022-08-07T04:24:58;6.22;;;4.30;;
58446;SDS011;44240;51.840;7.258;2022-08-07T04:27:24;8.73;;;4.80;;
58446;SDS011;44240;51.840;7.258;2022-08-07T04:29:50;6.32;;;4.40;;
58446;SDS011;44240;51.840;7.258;2022-08-07T04:32:15;6.15;;;4.65;;
58446;SDS011;44240;51.840;7.258;2022-08-07T04:34:41;6.22;;;4.70;;
58446;SDS011;44240;51.840;7.258;2022-08-07T04:37:07;4.72;;;4.25;;
58446;SDS011;44240;51.840;7.258;2022-08-07T04:39:33;8.80;;;4.60;;
58446;SDS011;44240;51.840;7.258;2022-08-07T04:42:00;6.15;;;5.28;;
58446;SDS011;44240;51.840;7.258;2022-08-07T04:44:26;5.90;;;4.30;;
58446;SDS011;44240;51.840;7.258;2022-08-07T04:46:54;7.28;;;5.28;;
58446;SDS011;44240;51.840;7.258;2022-08-07T04:54:46;8.18;;;5.13;;
58446;SDS011;44240;51.840;7.258;2022-08-07T04:57:46;7.55;;;4.53;;
58446;SDS011;44240;51.840;7.258;2022-08-07T05:00:20;8.32;;;4.93;;
58446;SDS011;44240;51.840;7.258;2022-08-07T05:05:43;6.05;;;4.40;;
58446;SDS011;44240;51.840;7.258;2022-08-07T05:08:19;7.18;;;4.65;;
58446;SDS011;44240;51.840;7.258;2022-08-07T05:10:51;9.55;;;4.70;;
58446;SDS011;44240;51.840;7.258;2022-08-07T05:13:30;5.85;;;4.55;;
58446;SDS011;44240;51.840;7.258;2022-08-07T05:16:00;5.18;;;4.22;;
58446;SDS011;44240;51.840;7.258;2022-08-07T05:18:31;8.52;;;4.82;;
58446;SDS011;44240;51.840;7.258;2022-08-07T05:21:04;6.90;;;4.03;;
58446;SDS011;44240;51.840;7.258;2022-08-07T05:23:41;7.35;;;4.47;;
58446;SDS011;44240;51.840;7.258;2022-08-07T05:26:14;8.40;;;4.70;;
58446;SDS011;44240;51.840;7.258;2022-08-07T05:28:42;9.75;;;4.63;;
58446;SDS011;44240;51.840;7.258;2022-08-07T05:31:10;7.07;;;4.68;;
58446;SDS011;44240;51.840;7.258;2022-08-07T05:33:37;8.68;;;4.85;;
58446;SDS011;44240;51.840;7.258;2022-08-07T05:36:05;6.07;;;3.75;;
58446;SDS011;44240;51.840;7.258;2022-08-07T05:38:32;6.75;;;4.80;;
58446;SDS011;44240;51.840;7.258;2022-08-07T05:40:58;5.57;;;4.80;;
58446;SDS011;44240;51.840;7.258;2022-08-07T05:43:26;6.85;;;4.60;;
58446;SDS011;44240;51.840;7.258;2022-08-07T05:45:52;5.90;;;4.78;;
58446;SDS011;44240;51.840;7.258;2022-08-07T05:48:18;5.28;;;4.25;;
58446;SDS011;44240;51.840;7.258;2022-08-07T05:50:44;5.15;;;4.53;;
58446;SDS011;44240;51.840;7.258;2022-08-07T05:53:11;4.95;;;4.47;;
58446;SDS011;44240;51.840;7.258;2022-08-07T05:55:36;5.43;;;4.10;;
58446;SDS011;44240;51.840;7.258;2022-08-07T05:58:03;5.45;;;4.43;;
58446;SDS011;44240;51.840;7.258;2022-08-07T06:00:30;5.07;;;4.40;;
58446;SDS011;44240;51.840;7.258;2022-08-07T06:02:58;4.82;;;4.38;;
58446;SDS011;44240;51.840;7.258;2022-08-07T06:05:25;5.43;;;4.22;;
58446;SDS011;44240;51.840;7.258;2022-08-07T06:07:52;6.72;;;4.30;;
58446;SDS011;44240;51.840;7.258;2022-08-07T06:10:19;5.25;;;4.18;;
58446;SDS011;44240;51.840;7.258;2022-08-07T06:12:45;4.30;;;3.88;;
58446;SDS011;44240;51.840;7.258;2022-08-07T06:15:13;5.90;;;3.85;;
58446;SDS011;44240;51.840;7.258;2022-08-07T06:17:39;6.15;;;3.97;;
58446;SDS011;44240;51.840;7.258;2022-08-07T06:20:07;5.88;;;4.45;;
58446;SDS011;44240;51.840;7.258;2022-08-07T06:22:34;4.25;;;3.75;;
58446;SDS011;44240;51.840;7.258;2022-08-07T06:25:01;4.68;;;3.90;;
58446;SDS011;44240;51.840;7.258;2022-08-07T06:27:26;5.65;;;4.18;;
58446;SDS011;44240;51.840;7.258;2022-08-07T06:29:52;4.60;;;4.00;;
58446;SDS011;44240;51.840;7.258;2022-08-07T06:32:18;5.13;;;4.05;;
58446;SDS011;44240;51.840;7.258;2022-08-07T06:34:43;3.80;;;3.40;;
58446;SDS011;44240;51.840;7.258;2022-08-07T06:37:09;4.50;;;3.90;;
58446;SDS011;44240;51.840;7.258;2022-08-07T06:39:34;4.15;;;3.38;;
58446;SDS011;44240;51.840;7.258;2022-08-07T06:42:07;4.18;;;3.63;;
58446;SDS011;44240;51.840;7.258;2022-08-07T06:44:39;6.28;;;4.05;;
58446;SDS011;44240;51.840;7.258;2022-08-07T06:47:06;4.40;;;3.75;;
58446;SDS011;44240;51.840;7.258;2022-08-07T06:49:31;6.20;;;3.58;;
58446;SDS011;44240;51.840;7.258;2022-08-07T06:51:57;4.60;;;3.92;;
58446;SDS011;44240;51.840;7.258;2022-08-07T06:54:25;5.90;;;3.65;;
58446;SDS011;44240;51.840;7.258;2022-08-07T06:56:50;5.97;;;3.95;;
58446;SDS011;44240;51.840;7.258;2022-08-07T06:59:19;6.82;;;4.20;;
58446;SDS011;44240;51.840;7.258;2022-08-07T07:01:48;6.03;;;3.58;;
58446;SDS011;44240;51.840;7.258;2022-08-07T07:04:14;4.97;;;2.75;;
58446;SDS011;44240;51.840;7.258;2022-08-07T07:06:40;3.45;;;3.10;;
58446;SDS011;44240;51.840;7.258;2022-08-07T07:09:19;6.65;;;3.05;;
58446;SDS011;44240;51.840;7.258;2022-08-07T07:11:49;3.25;;;2.40;;
58446;SDS011;44240;51.840;7.258;2022-08-07T07:14:24;2.95;;;2.53;;
58446;SDS011;44240;51.840;7.258;2022-08-07T07:16:55;5.50;;;2.88;;
58446;SDS011;44240;51.840;7.258;2022-08-07T07:19:26;4.40;;;2.97;;
58446;SDS011;44240;51.840;7.258;2022-08-07T07:21:56;4.03;;;2.47;;
58446;SDS011;44240;51.840;7.258;2022-08-07T07:24:22;3.78;;;2.40;;
58446;SDS011;44240;51.840;7.258;2022-08-07T07:26:48;2.20;;;2.00;;
58446;SDS011;44240;51.840;7.258;2022-08-07T07:29:17;2.63;;;2.00;;
58446;SDS011;44240;51.840;7.258;2022-08-07T07:31:48;2.67;;;1.58;;
58446;SDS011;44240;51.840;7.258;2022-08-07T07:34:17;1.63;;;1.52;;
58446;SDS011;44240;51.840;7.258;2022-08-07T07:36:47;3.92;;;2.13;;
58446;SDS011;44240;51.840;7.258;2022-08-07T07:39:14;2.20;;;1.42;;
58446;SDS011;44240;51.840;7.258;2022-08-07T07:41:41;4.82;;;2.15;;
58446;SDS011;44240;51.840;7.258;2022-08-07T07:44:11;5.30;;;2.95;;
58446;SDS011;44240;51.840;7.258;2022-08-07T07:46:39;2.63;;;2.10;;
58446;SDS011;44240;51.840;7.258;2022-08-07T07:49:07;3.33;;;1.80;;
58446;SDS011;44240;51.840;7.258;2022-08-07T07:51:35;2.95;;;1.80;;
58446;SDS011;44240;51.840;7.258;2022-08-07T07:54:03;3.42;;;1.98;;
58446;SDS011;44240;51.840;7.258;2022-08-07T07:56:31;5.90;;;2.28;;
58446;SDS011;44240;51.840;7.258;2022-08-07T07:59:01;3.25;;;2.30;;
58446;SDS011;44240;51.840;7.258;2022-08-07T08:01:29;3.88;;;1.80;;
58446;SDS011;44240;51.840;7.258;2022-08-07T08:03:56;2.35;;;1.65;;
58446;SDS011;44240;51.840;7.258;2022-08-07T08:06:24;3.58;;;1.80;;
58446;SDS011;44240;51.840;7.258;2022-08-07T08:08:50;2.00;;;1.63;;
58446;SDS011;44240;51.840;7.258;2022-08-07T08:11:17;2.53;;;1.48;;
58446;SDS011;44240;51.840;7.258;2022-08-07T08:13:45;1.98;;;1.73;;
58446;SDS011;44240;51.840;7.258;2022-08-07T08:16:15;1.77;;;1.60;;
58446;SDS011;44240;51.840;7.258;2022-08-07T08:18:44;1.85;;;1.52;;
58446;SDS011;44240;51.840;7.258;2022-08-07T08:21:12;2.55;;;1.35;;
58446;SDS011;44240;51.840;7.258;2022-08-07T08:23:59;1.92;;;1.70;;
58446;SDS011;44240;51.840;7.258;2022-08-07T08:26:46;1.70;;;1.60;;
58446;SDS011;44240;51.840;7.258;2022-08-07T08:29:29;1.58;;;1.30;;
58446;SDS011;44240;51.840;7.258;2022-08-07T08:32:08;6.97;;;1.60;;
58446;SDS011;44240;51.840;7.258;2022-08-07T08:34:37;2.22;;;0.98;;
58446;SDS011;44240;51.840;7.258;2022-08-07T08:37:03;3.60;;;1.13;;
58446;SDS011;44240;51.840;7.258;2022-08-07T08:39:31;3.42;;;0.77;;
58446;SDS011;44240;51.840;7.258;2022-08-07T08:42:03;0.98;;;0.93;;
58446;SDS011;44240;51.840;7.258;2022-08-07T08:44:42;1.70;;;0.90;;
58446;SDS011;44240;51.840;7.258;2022-08-07T08:50:20;1.17;;;1.02;;
58446;SDS011;44240;51.840;7.258;2022-08-07T08:52:47;4.60;;;1.15;;
58446;SDS011;44240;51.840;7.258;2022-08-07T08:58:02;1.40;;;0.90;;
58446;SDS011;44240;51.840;7.258;2022-08-07T09:00:44;3.95;;;0.98;;
58446;SDS011;44240;51.840;7.258;2022-08-07T09:06:14;1.50;;;0.90;;
58446;SDS011;44240;51.840;7.258;2022-08-07T09:12:26;0.60;;;0.60;;
58446;SDS011;44240;51.840;7.258;2022-08-07T09:15:27;2.17;;;0.80;;
58446;SDS011;44240;51.840;7.258;2022-08-07T10:00:13;0.75;;;0.60;;
58446;SDS011;44240;51.840;7.258;2022-08-07T10:08:29;1.63;;;0.77;;
58446;SDS011;44240;51.840;7.258;2022-08-07T10:11:04;1.13;;;0.68;;
58446;SDS011;44240;51.840;7.258;2022-08-07T10:16:50;0.70;;;0.68;;
58446;SDS011;44240;51.840;7.258;2022-08-07T10:19:41;0.68;;;0.65;;
58446;SDS011;44240;51.840;7.258;2022-08-07T10:25:24;1.33;;;0.60;;
58446;SDS011;44240;51.840;7.258;2022-08-07T10:28:05;0.73;;;0.73;;
58446;SDS011;44240;51.840;7.258;2022-08-07T10:44:42;0.85;;;0.60;;
58446;SDS011;44240;51.840;7.258;2022-08-07T10:47:50;1.42;;;0.80;;
58446;SDS011;44240;51.840;7.258;2022-08-07T10:50:53;0.70;;;0.70;;
58446;SDS011;44240;51.840;7.258;2022-08-07T10:53:27;1.58;;;1.08;;
58446;SDS011;44240;51.840;7.258;2022-08-07T11:01:24;1.00;;;0.75;;
58446;SDS011;44240;51.840;7.258;2022-08-07T11:04:24;0.73;;;0.68;;
58446;SDS011;44240;51.840;7.258;2022-08-07T11:09:44;4.13;;;0.70;;
58446;SDS011;44240;51.840;7.258;2022-08-07T11:12:15;1.00;;;0.70;;
58446;SDS011;44240;51.840;7.258;2022-08-07T11:14:57;0.75;;;0.60;;
58446;SDS011;44240;51.840;7.258;2022-08-07T11:17:42;1.23;;;0.80;;
58446;SDS011;44240;51.840;7.258;2022-08-07T11:20:40;1.08;;;0.40;;
58446;SDS011;44240;51.840;7.258;2022-08-07T11:26:00;0.70;;;0.70;;
58446;SDS011;44240;51.840;7.258;2022-08-07T11:28:44;1.05;;;0.65;;
58446;SDS011;44240;51.840;7.258;2022-08-07T11:34:30;1.77;;;0.77;;
58446;SDS011;44240;51.840;7.258;2022-08-07T11:37:16;0.70;;;0.65;;
58446;SDS011;44240;51.840;7.258;2022-08-07T11:57:19;0.65;;;0.65;;
58446;SDS011;44240;51.840;7.258;2022-08-07T12:05:51;1.55;;;0.40;;
58446;SDS011;44240;51.840;7.258;2022-08-07T12:09:08;0.70;;;0.60;;
58446;SDS011;44240;51.840;7.258;2022-08-07T12:11:45;1.38;;;0.70;;
58446;SDS011;44240;51.840;7.258;2022-08-07T12:14:18;1.20;;;0.63;;
58446;SDS011;44240;51.840;7.258;2022-08-07T12:16:47;0.60;;;0.60;;
58446;SDS011;44240;51.840;7.258;2022-08-07T12:19:30;1.38;;;0.52;;
58446;SDS011;44240;51.840;7.258;2022-08-07T12:22:55;0.90;;;0.80;;
58446;SDS011;44240;51.840;7.258;2022-08-07T12:28:15;1.45;;;0.80;;
58446;SDS011;44240;51.840;7.258;2022-08-07T12:31:04;1.25;;;0.70;;
58446;SDS011;44240;51.840;7.258;2022-08-07T12:33:35;2.47;;;0.77;;
58446;SDS011;44240;51.840;7.258;2022-08-07T12:36:02;2.20;;;0.65;;
58446;SDS011;44240;51.840;7.258;2022-08-07T12:38:29;0.85;;;0.70;;
58446;SDS011;44240;51.840;7.258;2022-08-07T12:40:56;0.82;;;0.60;;
58446;SDS011;44240;51.840;7.258;2022-08-07T12:43:26;2.33;;;0.75;;
58446;SDS011;44240;51.840;7.258;2022-08-07T12:49:07;2.38;;;1.00;;
58446;SDS011;44240;51.840;7.258;2022-08-07T12:51:46;0.82;;;0.82;;
58446;SDS011;44240;51.840;7.258;2022-08-07T12:54:20;0.63;;;0.60;;
58446;SDS011;44240;51.840;7.258;2022-08-07T12:56:53;0.75;;;0.60;;
58446;SDS011;44240;51.840;7.258;2022-08-07T12:59:29;0.50;;;0.50;;
58446;SDS011;44240;51.840;7.258;2022-08-07T13:05:15;0.55;;;0.55;;
58446;SDS011;44240;51.840;7.258;2022-08-07T13:13:48;1.95;;;0.75;;
58446;SDS011;44240;51.840;7.258;2022-08-07T13:25:09;1.85;;;0.60;;
58446;SDS011;44240;51.840;7.258;2022-08-07T13:27:49;3.15;;;1.10;;
58446;SDS011;44240;51.840;7.258;2022-08-07T13:30:17;1.63;;;0.65;;
58446;SDS011;44240;51.840;7.258;2022-08-07T13:38:38;1.95;;;0.80;;
58446;SDS011;44240;51.840;7.258;2022-08-07T13:41:23;2.38;;;0.90;;
58446;SDS011;44240;51.840;7.258;2022-08-07T13:43:54;1.10;;;0.70;;
58446;SDS011;44240;51.840;7.258;2022-08-07T13:46:27;1.77;;;0.65;;
58446;SDS011;44240;51.840;7.258;2022-08-07T13:48:55;0.60;;;0.60;;
58446;SDS011;44240;51.840;7.258;2022-08-07T13:51:24;0.85;;;0.73;;
58446;SDS011;44240;51.840;7.258;2022-08-07T13:53:53;0.80;;;0.80;;
58446;SDS011;44240;51.840;7.258;2022-08-07T13:56:25;0.55;;;0.55;;
58446;SDS011;44240;51.840;7.258;2022-08-07T13:58:52;1.13;;;0.80;;
58446;SDS011;44240;51.840;7.258;2022-08-07T14:01:33;1.40;;;0.77;;
58446;SDS011;44240;51.840;7.258;2022-08-07T14:04:08;1.35;;;0.90;;
58446;SDS011;44240;51.840;7.258;2022-08-07T14:06:38;0.65;;;0.60;;
58446;SDS011;44240;51.840;7.258;2022-08-07T14:09:06;0.80;;;0.65;;
58446;SDS011;44240;51.840;7.258;2022-08-07T14:11:41;0.82;;;0.50;;
58446;SDS011;44240;51.840;7.258;2022-08-07T14:14:10;2.00;;;0.68;;
58446;SDS011;44240;51.840;7.258;2022-08-07T14:16:40;0.60;;;0.60;;
58446;SDS011;44240;51.840;7.258;2022-08-07T14:19:15;1.02;;;0.50;;
58446;SDS011;44240;51.840;7.258;2022-08-07T14:21:46;1.10;;;0.80;;
58446;SDS011;44240;51.840;7.258;2022-08-07T14:24:19;3.78;;;0.70;;
58446;SDS011;44240;51.840;7.258;2022-08-07T14:26:59;1.73;;;0.73;;
58446;SDS011;44240;51.840;7.258;2022-08-07T14:29:29;1.17;;;0.60;;
58446;SDS011;44240;51.840;7.258;2022-08-07T14:32:00;0.70;;;0.60;;
58446;SDS011;44240;51.840;7.258;2022-08-07T14:34:28;2.05;;;0.80;;
58446;SDS011;44240;51.840;7.258;2022-08-07T14:36:57;2.47;;;0.77;;
58446;SDS011;44240;51.840;7.258;2022-08-07T14:39:24;0.93;;;0.82;;
58446;SDS011;44240;51.840;7.258;2022-08-07T14:41:50;0.88;;;0.85;;
58446;SDS011;44240;51.840;7.258;2022-08-07T14:44:17;1.25;;;0.90;;
58446;SDS011;44240;51.840;7.258;2022-08-07T14:46:45;1.88;;;0.50;;
58446;SDS011;44240;51.840;7.258;2022-08-07T14:49:13;1.92;;;0.80;;
58446;SDS011;44240;51.840;7.258;2022-08-07T14:51:41;0.60;;;0.60;;
58446;SDS011;44240;51.840;7.258;2022-08-07T14:54:07;1.27;;;0.60;;
58446;SDS011;44240;51.840;7.258;2022-08-07T14:56:35;1.48;;;0.88;;
58446;SDS011;44240;51.840;7.258;2022-08-07T14:59:05;0.50;;;0.50;;
58446;SDS011;44240;51.840;7.258;2022-08-07T15:01:34;1.00;;;0.80;;
58446;SDS011;44240;51.840;7.258;2022-08-07T15:04:03;1.25;;;0.85;;
58446;SDS011;44240;51.840;7.258;2022-08-07T15:06:31;1.63;;;1.35;;
58446;SDS011;44240;51.840;7.258;2022-08-07T15:09:17;1.75;;;0.88;;
58446;SDS011;44240;51.840;7.258;2022-08-07T15:11:55;3.70;;;1.20;;
58446;SDS011;44240;51.840;7.258;2022-08-07T15:14:25;2.30;;;0.80;;
58446;SDS011;44240;51.840;7.258;2022-08-07T15:16:53;2.15;;;0.77;;
58446;SDS011;44240;51.840;7.258;2022-08-07T15:19:23;3.10;;;1.10;;
58446;SDS011;44240;51.840;7.258;2022-08-07T15:21:55;0.70;;;0.70;;
58446;SDS011;44240;51.840;7.258;2022-08-07T15:24:28;1.17;;;0.88;;
58446;SDS011;44240;51.840;7.258;2022-08-07T15:27:11;0.93;;;0.93;;
58446;SDS011;44240;51.840;7.258;2022-08-07T15:29:41;1.20;;;1.03;;
58446;SDS011;44240;51.840;7.258;2022-08-07T15:32:09;3.28;;;1.10;;
58446;SDS011;44240;51.840;7.258;2022-08-07T15:34:42;1.52;;;1.15;;
58446;SDS011;44240;51.840;7.258;2022-08-07T15:37:09;1.45;;;1.35;;
58446;SDS011;44240;51.840;7.258;2022-08-07T15:39:36;2.75;;;0.90;;
58446;SDS011;44240;51.840;7.258;2022-08-07T15:42:04;0.98;;;0.90;;
58446;SDS011;44240;51.840;7.258;2022-08-07T15:44:41;1.98;;;0.95;;
58446;SDS011;44240;51.840;7.258;2022-08-07T15:47:10;1.42;;;1.02;;
58446;SDS011;44240;51.840;7.258;2022-08-07T15:49:38;1.55;;;0.90;;
58446;SDS011;44240;51.840;7.258;2022-08-07T15:52:06;4.75;;;0.90;;
58446;SDS011;44240;51.840;7.258;2022-08-07T15:54:38;0.80;;;0.80;;
58446;SDS011;44240;51.840;7.258;2022-08-07T15:57:18;0.88;;;0.88;;
58446;SDS011;44240;51.840;7.258;2022-08-07T15:59:47;1.10;;;1.00;;
58446;SDS011;44240;51.840;7.258;2022-08-07T16:02:22;1.73;;;0.88;;
58446;SDS011;44240;51.840;7.258;2022-08-07T16:04:57;0.90;;;0.90;;
58446;SDS011;44240;51.840;7.258;2022-08-07T16:07:29;3.65;;;1.10;;
58446;SDS011;44240;51.840;7.258;2022-08-07T16:09:58;1.08;;;1.00;;
58446;SDS011;44240;51.840;7.258;2022-08-07T16:18:35;1.83;;;0.90;;
58446;SDS011;44240;51.840;7.258;2022-08-07T16:21:19;1.20;;;1.10;;
58446;SDS011;44240;51.840;7.258;2022-08-07T16:24:01;1.95;;;1.10;;
58446;SDS011;44240;51.840;7.258;2022-08-07T16:32:39;1.90;;;1.20;;
58446;SDS011;44240;51.840;7.258;2022-08-07T16:35:32;2.95;;;1.00;;
58446;SDS011;44240;51.840;7.258;2022-08-07T16:38:24;1.80;;;1.40;;
58446;SDS011;44240;51.840;7.258;2022-08-07T16:41:07;1.45;;;1.05;;
58446;SDS011;44240;51.840;7.258;2022-08-07T16:49:18;2.88;;;1.40;;
58446;SDS011;44240;51.840;7.258;2022-08-07T16:52:29;1.38;;;1.10;;
58446;SDS011;44240;51.840;7.258;2022-08-07T16:55:23;3.70;;;1.35;;
58446;SDS011;44240;51.840;7.258;2022-08-07T16:58:02;3.03;;;1.45;;
58446;SDS011;44240;51.840;7.258;2022-08-07T17:00:41;2.15;;;1.00;;
58446;SDS011;44240;51.840;7.258;2022-08-07T17:03:17;2.15;;;1.45;;
58446;SDS011;44240;51.840;7.258;2022-08-07T17:05:59;3.28;;;1.23;;
58446;SDS011;44240;51.840;7.258;2022-08-07T17:08:50;1.17;;;1.10;;
58446;SDS011;44240;51.840;7.258;2022-08-07T17:14:41;1.65;;;1.00;;
58446;SDS011;44240;51.840;7.258;2022-08-07T17:17:13;1.05;;;0.95;;
58446;SDS011;44240;51.840;7.258;2022-08-07T17:19:47;1.60;;;1.50;;
58446;SDS011;44240;51.840;7.258;2022-08-07T17:22:15;2.03;;;1.15;;
58446;SDS011;44240;51.840;7.258;2022-08-07T17:25:06;1.42;;;1.02;;
58446;SDS011;44240;51.840;7.258;2022-08-07T17:28:27;1.70;;;1.33;;
58446;SDS011;44240;51.840;7.258;2022-08-07T17:30:39;1.25;;;1.15;;
58446;SDS011;44240;51.840;7.258;2022-08-07T17:33:15;1.10;;;1.00;;
58446;SDS011;44240;51.840;7.258;2022-08-07T17:38:39;2.45;;;1.52;;
58446;SDS011;44240;51.840;7.258;2022-08-07T17:44:22;1.70;;;1.40;;
58446;SDS011;44240;51.840;7.258;2022-08-07T17:47:17;2.55;;;1.65;;
58446;SDS011;44240;51.840;7.258;2022-08-07T17:49:53;1.88;;;1.67;;
58446;SDS011;44240;51.840;7.258;2022-08-07T17:52:24;2.53;;;1.48;;
58446;SDS011;44240;51.840;7.258;2022-08-07T17:55:13;2.42;;;1.50;;
58446;SDS011;44240;51.840;7.258;2022-08-07T18:00:25;1.25;;;1.15;;
58446;SDS011;44240;51.840;7.258;2022-08-07T18:02:57;1.30;;;1.20;;
58446;SDS011;44240;51.840;7.258;2022-08-07T18:05:38;1.55;;;1.10;;
58446;SDS011;44240;51.840;7.258;2022-08-07T18:08:12;1.38;;;1.27;;
58446;SDS011;44240;51.840;7.258;2022-08-07T18:13:44;1.30;;;1.10;;
58446;SDS011;44240;51.840;7.258;2022-08-07T18:18:49;2.60;;;1.33;;
58446;SDS011;44240;51.840;7.258;2022-08-07T18:24:16;5.50;;;1.30;;
58446;SDS011;44240;51.840;7.258;2022-08-07T18:29:23;1.90;;;1.45;;
58446;SDS011;44240;51.840;7.258;2022-08-07T18:32:03;1.90;;;1.40;;
58446;SDS011;44240;51.840;7.258;2022-08-07T18:41:10;2.45;;;1.45;;